Agdam, Azerbaijan

6:46 AM AZST on September 19, 2014 (GMT +0500)
Gyandzha | Change Station
CLOSE
Current Station
Airport
Location: Gyandzha,
Elevation: 1083 ft
Nearby Weather Stations

Elev 1083 ft 40.74 °N, 46.32 °E | Updated 16 minutes ago

Mostly Cloudy
Mostly Cloudy
63 °F
Feels Like 63 °F
N
4
Wind Variable Wind from North

Today
High -- | Low -- °F
--% Chance of Precip.
Yesterday
High -- | Low -- °F
Precip. -- in
7:37 AM 7:55 PM
Waning Crescent, 23% visible
Pressure 30.15 in
Visibility 6.2 miles
Clouds Scattered Clouds 2000 ft
Mostly Cloudy 5000 ft
Dew Point 59 °F
Humidity 88%
Rainfall 0.00 in
Snow Depth Not available.
UV 0 out of 12
Pollen Not available.
Air Quality Not available.
Flu Activity Not available.
METAR UBBG 190130Z 35003KT 9999 SCT020 BKN050 17/15 Q1021 R12/290060 NOSIG

More Conditions Fewer Conditions

Pressure 30.15 in
Visibility 6.2 miles
Clouds Scattered Clouds 2000 ft
Mostly Cloudy 5000 ft
Dew Point 59 °F
Humidity 88%
Rainfall 0.00 in
Snow Depth Not available.
UV 0 out of 12
Pollen Not available.
Air Quality Not available.
Flu Activity Not available.
METAR UBBG 190130Z 35003KT 9999 SCT020 BKN050 17/15 Q1021 R12/290060 NOSIG

More Conditions Fewer Conditions

10-Day Weather Forecast

Almanac

Astronomy

Sep. 19, 2014 Rise Set
Actual Time 7:37 AM AZST 7:55 PM AZST
Civil Twilight 7:10 AM AZST 8:22 PM AZST
Nautical Twilight 6:38 AM AZST 8:54 PM AZST
Astronomical Twilight 6:06 AM AZST 9:26 PM AZST
Moon 3:02 AM AZST 5:10 PM AZST
Length of Visible Light 13h 12m
Length of Day
12h 18m
Tomorrow will be 2m 36s shorter.
Waning Crescent, 23% of the Moon is Illuminated
Sep 18
Waning Crescent
Sep 24
New
Oct 1
First Quarter
Oct 8
Full
Oct 15
Last Quarter

Yesterday's Extremes

Country Highs Country Lows

Community

WunderPhotos

Upload Photos

1,754,529 photos uploaded!

Nearby

Snow Depth

Not available.

Earthquake Activity

City Distance Mag. Time & Date
No recent earthquake activity has been reported nearby.
Minimum magnitude displayed is 2.5.

Coastal Water Temperatures

Place Temperature
No Stations Reporting

Nearby Weather Stations